sensor_id;sensor_type;location;lat;lon;timestamp;P1;durP1;ratioP1;P2;durP2;ratioP2
35606;SDS011;21729;58.392;15.656;2022-08-02T00:02:05;2.47;;;1.20;;
35606;SDS011;21729;58.392;15.656;2022-08-02T00:04:32;1.65;;;1.00;;
35606;SDS011;21729;58.392;15.656;2022-08-02T00:07:01;1.20;;;1.08;;
35606;SDS011;21729;58.392;15.656;2022-08-02T00:09:28;2.67;;;1.17;;
35606;SDS011;21729;58.392;15.656;2022-08-02T00:11:55;1.48;;;1.10;;
35606;SDS011;21729;58.392;15.656;2022-08-02T00:14:22;2.35;;;1.13;;
35606;SDS011;21729;58.392;15.656;2022-08-02T00:16:49;1.90;;;1.23;;
35606;SDS011;21729;58.392;15.656;2022-08-02T00:19:16;2.47;;;1.30;;
35606;SDS011;21729;58.392;15.656;2022-08-02T00:21:43;1.55;;;1.20;;
35606;SDS011;21729;58.392;15.656;2022-08-02T00:24:12;2.40;;;1.30;;
35606;SDS011;21729;58.392;15.656;2022-08-02T00:26:39;1.30;;;1.13;;
35606;SDS011;21729;58.392;15.656;2022-08-02T00:29:06;1.10;;;1.00;;
35606;SDS011;21729;58.392;15.656;2022-08-02T00:31:33;2.97;;;1.25;;
35606;SDS011;21729;58.392;15.656;2022-08-02T00:34:00;2.43;;;1.40;;
35606;SDS011;21729;58.392;15.656;2022-08-02T00:36:28;1.30;;;1.20;;
35606;SDS011;21729;58.392;15.656;2022-08-02T00:38:55;1.48;;;1.30;;
35606;SDS011;21729;58.392;15.656;2022-08-02T00:41:23;1.13;;;1.02;;
35606;SDS011;21729;58.392;15.656;2022-08-02T00:43:51;1.27;;;1.17;;
35606;SDS011;21729;58.392;15.656;2022-08-02T00:46:18;1.58;;;1.33;;
35606;SDS011;21729;58.392;15.656;2022-08-02T00:48:46;1.85;;;1.20;;
35606;SDS011;21729;58.392;15.656;2022-08-02T00:51:13;1.42;;;1.30;;
35606;SDS011;21729;58.392;15.656;2022-08-02T00:53:41;1.02;;;1.02;;
35606;SDS011;21729;58.392;15.656;2022-08-02T00:56:09;2.80;;;1.30;;
35606;SDS011;21729;58.392;15.656;2022-08-02T00:58:37;1.70;;;1.10;;
35606;SDS011;21729;58.392;15.656;2022-08-02T01:01:04;1.50;;;1.10;;
35606;SDS011;21729;58.392;15.656;2022-08-02T01:03:32;1.40;;;1.30;;
35606;SDS011;21729;58.392;15.656;2022-08-02T01:05:59;2.30;;;1.30;;
35606;SDS011;21729;58.392;15.656;2022-08-02T01:08:26;1.92;;;1.30;;
35606;SDS011;21729;58.392;15.656;2022-08-02T01:10:53;2.05;;;1.23;;
35606;SDS011;21729;58.392;15.656;2022-08-02T01:13:20;2.38;;;1.30;;
35606;SDS011;21729;58.392;15.656;2022-08-02T01:15:51;1.90;;;1.30;;
35606;SDS011;21729;58.392;15.656;2022-08-02T01:18:24;2.42;;;1.38;;
35606;SDS011;21729;58.392;15.656;2022-08-02T01:21:04;2.00;;;1.25;;
35606;SDS011;21729;58.392;15.656;2022-08-02T01:23:56;2.50;;;1.40;;
35606;SDS011;21729;58.392;15.656;2022-08-02T01:26:36;2.60;;;1.40;;
35606;SDS011;21729;58.392;15.656;2022-08-02T01:29:10;1.27;;;1.17;;
35606;SDS011;21729;58.392;15.656;2022-08-02T01:31:43;2.28;;;1.40;;
35606;SDS011;21729;58.392;15.656;2022-08-02T01:34:17;2.05;;;1.60;;
35606;SDS011;21729;58.392;15.656;2022-08-02T01:36:47;3.67;;;1.30;;
35606;SDS011;21729;58.392;15.656;2022-08-02T01:39:20;3.25;;;1.30;;
35606;SDS011;21729;58.392;15.656;2022-08-02T01:41:51;1.63;;;1.20;;
35606;SDS011;21729;58.392;15.656;2022-08-02T01:44:21;2.20;;;1.25;;
35606;SDS011;21729;58.392;15.656;2022-08-02T01:46:52;3.78;;;1.30;;
35606;SDS011;21729;58.392;15.656;2022-08-02T01:49:25;5.63;;;1.50;;
35606;SDS011;21729;58.392;15.656;2022-08-02T01:51:55;4.20;;;1.60;;
35606;SDS011;21729;58.392;15.656;2022-08-02T01:54:42;2.50;;;1.50;;
35606;SDS011;21729;58.392;15.656;2022-08-02T01:57:12;5.40;;;1.45;;
35606;SDS011;21729;58.392;15.656;2022-08-02T01:59:43;3.70;;;1.33;;
35606;SDS011;21729;58.392;15.656;2022-08-02T02:02:12;3.90;;;1.70;;
35606;SDS011;21729;58.392;15.656;2022-08-02T02:04:41;5.00;;;1.40;;
35606;SDS011;21729;58.392;15.656;2022-08-02T02:07:11;7.78;;;1.50;;
35606;SDS011;21729;58.392;15.656;2022-08-02T02:09:41;3.80;;;1.60;;
35606;SDS011;21729;58.392;15.656;2022-08-02T02:12:10;2.80;;;1.70;;
35606;SDS011;21729;58.392;15.656;2022-08-02T02:14:40;4.85;;;1.60;;
35606;SDS011;21729;58.392;15.656;2022-08-02T02:17:10;6.57;;;1.90;;
35606;SDS011;21729;58.392;15.656;2022-08-02T02:19:39;3.17;;;1.53;;
35606;SDS011;21729;58.392;15.656;2022-08-02T02:22:07;5.07;;;1.45;;
35606;SDS011;21729;58.392;15.656;2022-08-02T02:24:34;5.15;;;2.05;;
35606;SDS011;21729;58.392;15.656;2022-08-02T02:27:02;9.00;;;2.25;;
35606;SDS011;21729;58.392;15.656;2022-08-02T02:29:31;4.53;;;1.83;;
35606;SDS011;21729;58.392;15.656;2022-08-02T02:32:02;3.95;;;1.80;;
35606;SDS011;21729;58.392;15.656;2022-08-02T02:34:32;5.53;;;1.60;;
35606;SDS011;21729;58.392;15.656;2022-08-02T02:37:04;6.80;;;1.85;;
35606;SDS011;21729;58.392;15.656;2022-08-02T02:39:34;6.22;;;1.65;;
35606;SDS011;21729;58.392;15.656;2022-08-02T02:42:03;5.90;;;1.70;;
35606;SDS011;21729;58.392;15.656;2022-08-02T02:44:34;6.25;;;1.98;;
35606;SDS011;21729;58.392;15.656;2022-08-02T02:47:05;8.20;;;2.00;;
35606;SDS011;21729;58.392;15.656;2022-08-02T02:49:34;3.92;;;1.67;;
35606;SDS011;21729;58.392;15.656;2022-08-02T02:52:03;5.80;;;1.80;;
35606;SDS011;21729;58.392;15.656;2022-08-02T02:54:31;4.65;;;1.60;;
35606;SDS011;21729;58.392;15.656;2022-08-02T02:56:59;4.57;;;1.50;;
35606;SDS011;21729;58.392;15.656;2022-08-02T02:59:27;5.93;;;1.75;;
35606;SDS011;21729;58.392;15.656;2022-08-02T03:01:55;5.28;;;1.70;;
35606;SDS011;21729;58.392;15.656;2022-08-02T03:04:25;4.47;;;1.60;;
35606;SDS011;21729;58.392;15.656;2022-08-02T03:06:53;4.77;;;1.77;;
35606;SDS011;21729;58.392;15.656;2022-08-02T03:09:20;6.97;;;1.90;;
35606;SDS011;21729;58.392;15.656;2022-08-02T03:11:48;5.30;;;1.60;;
35606;SDS011;21729;58.392;15.656;2022-08-02T03:14:15;4.13;;;1.92;;
35606;SDS011;21729;58.392;15.656;2022-08-02T03:16:43;6.38;;;1.73;;
35606;SDS011;21729;58.392;15.656;2022-08-02T03:19:12;5.87;;;2.03;;
35606;SDS011;21729;58.392;15.656;2022-08-02T03:21:42;4.72;;;1.80;;
35606;SDS011;21729;58.392;15.656;2022-08-02T03:24:10;6.90;;;1.98;;
35606;SDS011;21729;58.392;15.656;2022-08-02T03:26:38;5.93;;;1.98;;
35606;SDS011;21729;58.392;15.656;2022-08-02T03:29:06;6.13;;;1.80;;
35606;SDS011;21729;58.392;15.656;2022-08-02T03:31:34;6.88;;;1.90;;
35606;SDS011;21729;58.392;15.656;2022-08-02T03:34:02;6.00;;;1.88;;
35606;SDS011;21729;58.392;15.656;2022-08-02T03:36:30;9.57;;;1.80;;
35606;SDS011;21729;58.392;15.656;2022-08-02T03:39:02;6.32;;;1.77;;
35606;SDS011;21729;58.392;15.656;2022-08-02T03:41:30;7.85;;;1.70;;
35606;SDS011;21729;58.392;15.656;2022-08-02T03:43:58;5.63;;;2.22;;
35606;SDS011;21729;58.392;15.656;2022-08-02T03:46:26;7.45;;;1.90;;
35606;SDS011;21729;58.392;15.656;2022-08-02T03:48:53;4.32;;;1.60;;
35606;SDS011;21729;58.392;15.656;2022-08-02T03:51:22;6.53;;;1.80;;
35606;SDS011;21729;58.392;15.656;2022-08-02T03:53:49;6.53;;;2.00;;
35606;SDS011;21729;58.392;15.656;2022-08-02T03:56:18;7.30;;;2.00;;
35606;SDS011;21729;58.392;15.656;2022-08-02T03:58:45;6.40;;;2.10;;
35606;SDS011;21729;58.392;15.656;2022-08-02T04:01:12;5.40;;;1.60;;
35606;SDS011;21729;58.392;15.656;2022-08-02T04:03:39;5.80;;;1.50;;
35606;SDS011;21729;58.392;15.656;2022-08-02T04:06:06;7.50;;;1.80;;
35606;SDS011;21729;58.392;15.656;2022-08-02T04:08:33;6.05;;;2.00;;
35606;SDS011;21729;58.392;15.656;2022-08-02T04:11:00;6.43;;;1.63;;
35606;SDS011;21729;58.392;15.656;2022-08-02T04:13:57;6.43;;;1.60;;
35606;SDS011;21729;58.392;15.656;2022-08-02T04:16:27;8.05;;;1.85;;
35606;SDS011;21729;58.392;15.656;2022-08-02T04:19:00;6.63;;;1.97;;
35606;SDS011;21729;58.392;15.656;2022-08-02T04:21:30;6.03;;;1.90;;
35606;SDS011;21729;58.392;15.656;2022-08-02T04:24:02;6.38;;;1.90;;
35606;SDS011;21729;58.392;15.656;2022-08-02T04:26:33;4.88;;;1.67;;
35606;SDS011;21729;58.392;15.656;2022-08-02T04:29:04;4.28;;;1.58;;
35606;SDS011;21729;58.392;15.656;2022-08-02T04:31:31;5.18;;;1.95;;
35606;SDS011;21729;58.392;15.656;2022-08-02T04:33:59;5.22;;;1.33;;
35606;SDS011;21729;58.392;15.656;2022-08-02T04:36:26;6.85;;;1.58;;
35606;SDS011;21729;58.392;15.656;2022-08-02T04:38:54;7.70;;;1.80;;
35606;SDS011;21729;58.392;15.656;2022-08-02T04:41:21;7.43;;;1.83;;
35606;SDS011;21729;58.392;15.656;2022-08-02T04:43:48;5.45;;;1.70;;
35606;SDS011;21729;58.392;15.656;2022-08-02T04:46:18;7.60;;;2.03;;
35606;SDS011;21729;58.392;15.656;2022-08-02T04:48:45;3.42;;;1.48;;
35606;SDS011;21729;58.392;15.656;2022-08-02T04:51:12;6.47;;;1.90;;
35606;SDS011;21729;58.392;15.656;2022-08-02T04:53:39;4.00;;;1.52;;
35606;SDS011;21729;58.392;15.656;2022-08-02T04:56:06;5.55;;;2.00;;
35606;SDS011;21729;58.392;15.656;2022-08-02T04:58:33;7.43;;;1.92;;
35606;SDS011;21729;58.392;15.656;2022-08-02T05:01:01;4.95;;;1.67;;
35606;SDS011;21729;58.392;15.656;2022-08-02T05:03:29;3.50;;;1.50;;
35606;SDS011;21729;58.392;15.656;2022-08-02T05:05:56;5.00;;;1.60;;
35606;SDS011;21729;58.392;15.656;2022-08-02T05:08:24;5.10;;;1.53;;
35606;SDS011;21729;58.392;15.656;2022-08-02T05:10:51;4.40;;;1.30;;
35606;SDS011;21729;58.392;15.656;2022-08-02T05:13:18;6.50;;;1.40;;
35606;SDS011;21729;58.392;15.656;2022-08-02T05:15:46;4.78;;;1.42;;
35606;SDS011;21729;58.392;15.656;2022-08-02T05:18:14;5.03;;;1.35;;
35606;SDS011;21729;58.392;15.656;2022-08-02T05:20:43;4.13;;;1.50;;
35606;SDS011;21729;58.392;15.656;2022-08-02T05:23:10;5.75;;;1.58;;
35606;SDS011;21729;58.392;15.656;2022-08-02T05:25:37;5.60;;;1.33;;
35606;SDS011;21729;58.392;15.656;2022-08-02T05:28:04;8.45;;;1.40;;
35606;SDS011;21729;58.392;15.656;2022-08-02T05:30:31;4.57;;;1.27;;
35606;SDS011;21729;58.392;15.656;2022-08-02T05:32:58;3.15;;;1.10;;
35606;SDS011;21729;58.392;15.656;2022-08-02T05:35:25;3.67;;;1.40;;
35606;SDS011;21729;58.392;15.656;2022-08-02T05:37:54;2.00;;;1.10;;
35606;SDS011;21729;58.392;15.656;2022-08-02T05:40:21;1.98;;;1.10;;
35606;SDS011;21729;58.392;15.656;2022-08-02T05:42:48;1.33;;;0.90;;
35606;SDS011;21729;58.392;15.656;2022-08-02T05:45:15;2.17;;;1.00;;
35606;SDS011;21729;58.392;15.656;2022-08-02T05:47:42;3.70;;;0.90;;
35606;SDS011;21729;58.392;15.656;2022-08-02T05:50:09;1.63;;;0.83;;
35606;SDS011;21729;58.392;15.656;2022-08-02T05:52:42;2.85;;;0.80;;
35606;SDS011;21729;58.392;15.656;2022-08-02T05:55:15;4.13;;;0.82;;
35606;SDS011;21729;58.392;15.656;2022-08-02T05:57:47;2.30;;;0.90;;
35606;SDS011;21729;58.392;15.656;2022-08-02T06:00:18;4.45;;;1.20;;
35606;SDS011;21729;58.392;15.656;2022-08-02T06:02:56;2.00;;;0.70;;
35606;SDS011;21729;58.392;15.656;2022-08-02T06:05:31;6.82;;;1.20;;
35606;SDS011;21729;58.392;15.656;2022-08-02T06:07:59;3.85;;;0.90;;
35606;SDS011;21729;58.392;15.656;2022-08-02T06:10:29;2.30;;;0.80;;
35606;SDS011;21729;58.392;15.656;2022-08-02T06:13:00;2.97;;;0.80;;
35606;SDS011;21729;58.392;15.656;2022-08-02T06:15:33;4.88;;;0.98;;
35606;SDS011;21729;58.392;15.656;2022-08-02T06:18:02;3.53;;;1.10;;
35606;SDS011;21729;58.392;15.656;2022-08-02T06:20:30;1.67;;;0.80;;
35606;SDS011;21729;58.392;15.656;2022-08-02T06:23:01;2.17;;;0.80;;
35606;SDS011;21729;58.392;15.656;2022-08-02T06:25:32;2.78;;;0.80;;
35606;SDS011;21729;58.392;15.656;2022-08-02T06:28:00;4.85;;;1.10;;
35606;SDS011;21729;58.392;15.656;2022-08-02T06:30:30;2.67;;;1.40;;
35606;SDS011;21729;58.392;15.656;2022-08-02T06:32:58;2.17;;;1.10;;
35606;SDS011;21729;58.392;15.656;2022-08-02T06:35:28;4.25;;;1.20;;
35606;SDS011;21729;58.392;15.656;2022-08-02T06:38:01;1.90;;;1.05;;
35606;SDS011;21729;58.392;15.656;2022-08-02T06:40:29;3.28;;;1.05;;
35606;SDS011;21729;58.392;15.656;2022-08-02T06:43:10;1.85;;;1.05;;
35606;SDS011;21729;58.392;15.656;2022-08-02T06:45:39;2.25;;;1.10;;
35606;SDS011;21729;58.392;15.656;2022-08-02T06:48:06;2.42;;;1.10;;
35606;SDS011;21729;58.392;15.656;2022-08-02T06:50:34;1.92;;;1.13;;
35606;SDS011;21729;58.392;15.656;2022-08-02T06:53:03;1.80;;;1.05;;
35606;SDS011;21729;58.392;15.656;2022-08-02T06:55:33;2.35;;;1.20;;
35606;SDS011;21729;58.392;15.656;2022-08-02T06:58:00;2.70;;;1.10;;
35606;SDS011;21729;58.392;15.656;2022-08-02T07:00:27;2.58;;;1.20;;
35606;SDS011;21729;58.392;15.656;2022-08-02T07:02:54;1.98;;;1.00;;
35606;SDS011;21729;58.392;15.656;2022-08-02T07:05:22;3.08;;;1.13;;
35606;SDS011;21729;58.392;15.656;2022-08-02T07:07:49;1.47;;;0.87;;
35606;SDS011;21729;58.392;15.656;2022-08-02T07:10:16;3.78;;;1.35;;
35606;SDS011;21729;58.392;15.656;2022-08-02T07:12:45;2.90;;;1.40;;
35606;SDS011;21729;58.392;15.656;2022-08-02T07:15:12;3.25;;;1.27;;
35606;SDS011;21729;58.392;15.656;2022-08-02T07:17:40;3.55;;;1.20;;
35606;SDS011;21729;58.392;15.656;2022-08-02T07:20:07;2.10;;;1.10;;
35606;SDS011;21729;58.392;15.656;2022-08-02T07:22:35;2.63;;;1.20;;
35606;SDS011;21729;58.392;15.656;2022-08-02T07:25:02;2.88;;;1.15;;
35606;SDS011;21729;58.392;15.656;2022-08-02T07:27:30;2.50;;;1.05;;
35606;SDS011;21729;58.392;15.656;2022-08-02T07:29:59;1.80;;;1.17;;
35606;SDS011;21729;58.392;15.656;2022-08-02T07:32:27;1.90;;;1.00;;
35606;SDS011;21729;58.392;15.656;2022-08-02T07:34:56;1.50;;;0.80;;
35606;SDS011;21729;58.392;15.656;2022-08-02T07:37:24;1.48;;;0.80;;
35606;SDS011;21729;58.392;15.656;2022-08-02T07:39:52;2.13;;;0.80;;
35606;SDS011;21729;58.392;15.656;2022-08-02T07:42:19;2.08;;;0.90;;
35606;SDS011;21729;58.392;15.656;2022-08-02T07:44:46;1.42;;;0.95;;
35606;SDS011;21729;58.392;15.656;2022-08-02T07:47:15;2.38;;;1.08;;
35606;SDS011;21729;58.392;15.656;2022-08-02T07:49:43;1.80;;;0.98;;
35606;SDS011;21729;58.392;15.656;2022-08-02T07:52:10;1.38;;;0.82;;
35606;SDS011;21729;58.392;15.656;2022-08-02T07:54:37;1.80;;;0.87;;
35606;SDS011;21729;58.392;15.656;2022-08-02T07:57:04;2.00;;;0.90;;
35606;SDS011;21729;58.392;15.656;2022-08-02T07:59:31;1.97;;;0.80;;
35606;SDS011;21729;58.392;15.656;2022-08-02T08:01:58;2.85;;;0.98;;
35606;SDS011;21729;58.392;15.656;2022-08-02T08:04:27;1.90;;;0.90;;
35606;SDS011;21729;58.392;15.656;2022-08-02T08:06:54;1.45;;;0.63;;
35606;SDS011;21729;58.392;15.656;2022-08-02T08:09:21;2.63;;;0.73;;
35606;SDS011;21729;58.392;15.656;2022-08-02T08:11:48;1.17;;;0.60;;
35606;SDS011;21729;58.392;15.656;2022-08-02T08:14:15;2.70;;;0.80;;
35606;SDS011;21729;58.392;15.656;2022-08-02T08:16:42;1.80;;;0.80;;
35606;SDS011;21729;58.392;15.656;2022-08-02T08:19:09;2.30;;;0.60;;
35606;SDS011;21729;58.392;15.656;2022-08-02T08:21:38;1.50;;;0.70;;
35606;SDS011;21729;58.392;15.656;2022-08-02T08:24:05;1.42;;;0.70;;
35606;SDS011;21729;58.392;15.656;2022-08-02T08:26:33;2.15;;;0.80;;
35606;SDS011;21729;58.392;15.656;2022-08-02T08:29:00;1.70;;;0.70;;
35606;SDS011;21729;58.392;15.656;2022-08-02T08:31:27;1.15;;;0.70;;
35606;SDS011;21729;58.392;15.656;2022-08-02T08:33:54;1.50;;;0.75;;
35606;SDS011;21729;58.392;15.656;2022-08-02T08:36:21;1.98;;;0.70;;
35606;SDS011;21729;58.392;15.656;2022-08-02T08:38:50;1.75;;;0.80;;
35606;SDS011;21729;58.392;15.656;2022-08-02T08:41:17;2.25;;;0.90;;
35606;SDS011;21729;58.392;15.656;2022-08-02T08:43:45;3.95;;;1.10;;
35606;SDS011;21729;58.392;15.656;2022-08-02T08:46:16;2.08;;;1.00;;
35606;SDS011;21729;58.392;15.656;2022-08-02T08:48:50;2.10;;;0.98;;
35606;SDS011;21729;58.392;15.656;2022-08-02T08:51:24;1.58;;;0.90;;
35606;SDS011;21729;58.392;15.656;2022-08-02T08:53:58;3.60;;;1.20;;
35606;SDS011;21729;58.392;15.656;2022-08-02T08:56:31;2.75;;;0.88;;
35606;SDS011;21729;58.392;15.656;2022-08-02T08:58:59;2.67;;;1.10;;
35606;SDS011;21729;58.392;15.656;2022-08-02T09:01:27;2.25;;;1.00;;
35606;SDS011;21729;58.392;15.656;2022-08-02T09:03:55;2.70;;;1.00;;
35606;SDS011;21729;58.392;15.656;2022-08-02T09:06:22;2.42;;;0.90;;
35606;SDS011;21729;58.392;15.656;2022-08-02T09:08:50;3.35;;;1.58;;
35606;SDS011;21729;58.392;15.656;2022-08-02T09:11:23;2.88;;;1.15;;
35606;SDS011;21729;58.392;15.656;2022-08-02T09:13:51;1.88;;;0.95;;
35606;SDS011;21729;58.392;15.656;2022-08-02T09:16:26;2.42;;;1.02;;
35606;SDS011;21729;58.392;15.656;2022-08-02T09:18:59;3.38;;;1.20;;
35606;SDS011;21729;58.392;15.656;2022-08-02T09:21:33;2.05;;;0.90;;
35606;SDS011;21729;58.392;15.656;2022-08-02T09:24:01;2.78;;;0.90;;
35606;SDS011;21729;58.392;15.656;2022-08-02T09:26:42;2.05;;;0.90;;
35606;SDS011;21729;58.392;15.656;2022-08-02T09:29:09;1.63;;;0.90;;
35606;SDS011;21729;58.392;15.656;2022-08-02T09:31:36;2.10;;;0.93;;
35606;SDS011;21729;58.392;15.656;2022-08-02T09:34:03;1.60;;;0.82;;
35606;SDS011;21729;58.392;15.656;2022-08-02T09:36:35;2.05;;;0.95;;
35606;SDS011;21729;58.392;15.656;2022-08-02T09:39:04;1.55;;;0.88;;
35606;SDS011;21729;58.392;15.656;2022-08-02T09:41:34;2.38;;;1.08;;
35606;SDS011;21729;58.392;15.656;2022-08-02T09:44:03;2.28;;;0.95;;
35606;SDS011;21729;58.392;15.656;2022-08-02T09:46:32;2.30;;;1.00;;
35606;SDS011;21729;58.392;15.656;2022-08-02T09:49:03;2.92;;;1.05;;
35606;SDS011;21729;58.392;15.656;2022-08-02T09:51:32;2.50;;;1.02;;
35606;SDS011;21729;58.392;15.656;2022-08-02T09:54:01;2.88;;;1.10;;
35606;SDS011;21729;58.392;15.656;2022-08-02T09:56:38;2.97;;;0.93;;
35606;SDS011;21729;58.392;15.656;2022-08-02T09:59:09;1.58;;;0.90;;
35606;SDS011;21729;58.392;15.656;2022-08-02T10:01:36;1.75;;;0.88;;
35606;SDS011;21729;58.392;15.656;2022-08-02T10:04:04;2.00;;;0.90;;
35606;SDS011;21729;58.392;15.656;2022-08-02T10:06:34;2.42;;;0.98;;
35606;SDS011;21729;58.392;15.656;2022-08-02T10:09:02;3.50;;;0.83;;
35606;SDS011;21729;58.392;15.656;2022-08-02T10:11:30;2.00;;;0.90;;
35606;SDS011;21729;58.392;15.656;2022-08-02T10:13:58;2.33;;;1.00;;
35606;SDS011;21729;58.392;15.656;2022-08-02T10:16:28;1.95;;;0.85;;
35606;SDS011;21729;58.392;15.656;2022-08-02T10:18:56;0.98;;;0.70;;
35606;SDS011;21729;58.392;15.656;2022-08-02T10:21:26;3.33;;;1.10;;
35606;SDS011;21729;58.392;15.656;2022-08-02T10:23:59;3.00;;;1.00;;
35606;SDS011;21729;58.392;15.656;2022-08-02T10:26:31;1.20;;;0.82;;
35606;SDS011;21729;58.392;15.656;2022-08-02T10:28:58;1.05;;;0.95;;
35606;SDS011;21729;58.392;15.656;2022-08-02T10:31:26;2.65;;;1.13;;
35606;SDS011;21729;58.392;15.656;2022-08-02T10:34:00;1.92;;;0.90;;
35606;SDS011;21729;58.392;15.656;2022-08-02T10:36:32;2.00;;;1.10;;
35606;SDS011;21729;58.392;15.656;2022-08-02T10:39:00;1.83;;;0.88;;
35606;SDS011;21729;58.392;15.656;2022-08-02T10:41:46;2.45;;;1.08;;
35606;SDS011;21729;58.392;15.656;2022-08-02T10:44:22;2.10;;;0.80;;
35606;SDS011;21729;58.392;15.656;2022-08-02T10:49:50;1.65;;;0.98;;
35606;SDS011;21729;58.392;15.656;2022-08-02T10:52:18;2.63;;;0.90;;
35606;SDS011;21729;58.392;15.656;2022-08-02T10:54:50;1.35;;;0.77;;
35606;SDS011;21729;58.392;15.656;2022-08-02T10:57:21;2.58;;;0.98;;
35606;SDS011;21729;58.392;15.656;2022-08-02T10:59:50;2.70;;;0.90;;
35606;SDS011;21729;58.392;15.656;2022-08-02T11:05:09;2.65;;;0.93;;
35606;SDS011;21729;58.392;15.656;2022-08-02T11:07:40;2.15;;;1.00;;
35606;SDS011;21729;58.392;15.656;2022-08-02T11:10:27;1.70;;;0.88;;
35606;SDS011;21729;58.392;15.656;2022-08-02T11:13:09;1.67;;;0.90;;
35606;SDS011;21729;58.392;15.656;2022-08-02T11:15:46;1.65;;;0.70;;
35606;SDS011;21729;58.392;15.656;2022-08-02T11:18:59;1.73;;;1.00;;
35606;SDS011;21729;58.392;15.656;2022-08-02T11:21:28;1.40;;;0.85;;
35606;SDS011;21729;58.392;15.656;2022-08-02T11:24:22;1.50;;;1.03;;
35606;SDS011;21729;58.392;15.656;2022-08-02T11:26:53;1.13;;;0.77;;
35606;SDS011;21729;58.392;15.656;2022-08-02T11:29:20;1.55;;;0.80;;
35606;SDS011;21729;58.392;15.656;2022-08-02T11:31:47;1.10;;;0.70;;
35606;SDS011;21729;58.392;15.656;2022-08-02T11:34:16;1.10;;;0.70;;
35606;SDS011;21729;58.392;15.656;2022-08-02T11:36:44;1.05;;;0.57;;
35606;SDS011;21729;58.392;15.656;2022-08-02T11:39:13;1.20;;;0.70;;
35606;SDS011;21729;58.392;15.656;2022-08-02T11:41:42;1.20;;;0.80;;
35606;SDS011;21729;58.392;15.656;2022-08-02T11:44:13;1.00;;;0.90;;
35606;SDS011;21729;58.392;15.656;2022-08-02T11:46:40;0.70;;;0.70;;
35606;SDS011;21729;58.392;15.656;2022-08-02T11:49:11;0.63;;;0.63;;
35606;SDS011;21729;58.392;15.656;2022-08-02T11:51:50;1.40;;;0.70;;
35606;SDS011;21729;58.392;15.656;2022-08-02T11:54:22;1.52;;;0.80;;
35606;SDS011;21729;58.392;15.656;2022-08-02T11:56:53;1.25;;;0.73;;
35606;SDS011;21729;58.392;15.656;2022-08-02T11:59:20;1.70;;;1.08;;
35606;SDS011;21729;58.392;15.656;2022-08-02T12:01:48;0.73;;;0.70;;
35606;SDS011;21729;58.392;15.656;2022-08-02T12:04:16;1.30;;;0.90;;
35606;SDS011;21729;58.392;15.656;2022-08-02T12:06:55;0.90;;;0.70;;
35606;SDS011;21729;58.392;15.656;2022-08-02T12:09:24;0.80;;;0.70;;
35606;SDS011;21729;58.392;15.656;2022-08-02T12:11:51;0.65;;;0.60;;
35606;SDS011;21729;58.392;15.656;2022-08-02T12:14:19;1.57;;;0.63;;
35606;SDS011;21729;58.392;15.656;2022-08-02T12:16:46;2.00;;;0.68;;
35606;SDS011;21729;58.392;15.656;2022-08-02T12:19:31;0.85;;;0.60;;
35606;SDS011;21729;58.392;15.656;2022-08-02T12:22:07;0.93;;;0.70;;
35606;SDS011;21729;58.392;15.656;2022-08-02T12:24:37;0.80;;;0.75;;
35606;SDS011;21729;58.392;15.656;2022-08-02T12:27:05;0.90;;;0.65;;
35606;SDS011;21729;58.392;15.656;2022-08-02T12:29:34;0.85;;;0.70;;
35606;SDS011;21729;58.392;15.656;2022-08-02T12:32:02;0.98;;;0.65;;
35606;SDS011;21729;58.392;15.656;2022-08-02T12:34:31;1.95;;;0.70;;
35606;SDS011;21729;58.392;15.656;2022-08-02T12:37:00;1.80;;;0.50;;
35606;SDS011;21729;58.392;15.656;2022-08-02T12:39:34;0.90;;;0.60;;
35606;SDS011;21729;58.392;15.656;2022-08-02T12:42:03;0.43;;;0.43;;
35606;SDS011;21729;58.392;15.656;2022-08-02T12:44:31;0.47;;;0.47;;
35606;SDS011;21729;58.392;15.656;2022-08-02T12:46:59;0.60;;;0.50;;
35606;SDS011;21729;58.392;15.656;2022-08-02T12:49:28;0.88;;;0.60;;
35606;SDS011;21729;58.392;15.656;2022-08-02T12:51:55;1.10;;;0.70;;
35606;SDS011;21729;58.392;15.656;2022-08-02T12:54:23;1.25;;;0.70;;
35606;SDS011;21729;58.392;15.656;2022-08-02T12:56:53;1.17;;;0.70;;
35606;SDS011;21729;58.392;15.656;2022-08-02T12:59:33;0.77;;;0.60;;
35606;SDS011;21729;58.392;15.656;2022-08-02T13:02:02;1.00;;;0.68;;
35606;SDS011;21729;58.392;15.656;2022-08-02T13:04:30;0.70;;;0.63;;
35606;SDS011;21729;58.392;15.656;2022-08-02T13:06:58;1.15;;;0.50;;
35606;SDS011;21729;58.392;15.656;2022-08-02T13:09:25;0.65;;;0.60;;
35606;SDS011;21729;58.392;15.656;2022-08-02T13:11:53;1.10;;;0.70;;
35606;SDS011;21729;58.392;15.656;2022-08-02T13:14:21;2.03;;;0.65;;
35606;SDS011;21729;58.392;15.656;2022-08-02T13:16:48;1.20;;;0.43;;
35606;SDS011;21729;58.392;15.656;2022-08-02T13:19:15;0.65;;;0.65;;
35606;SDS011;21729;58.392;15.656;2022-08-02T13:21:43;1.08;;;0.77;;
35606;SDS011;21729;58.392;15.656;2022-08-02T13:24:12;1.20;;;0.70;;
35606;SDS011;21729;58.392;15.656;2022-08-02T13:26:40;1.30;;;0.73;;
35606;SDS011;21729;58.392;15.656;2022-08-02T13:29:10;1.60;;;0.80;;
35606;SDS011;21729;58.392;15.656;2022-08-02T13:31:37;1.15;;;0.63;;
35606;SDS011;21729;58.392;15.656;2022-08-02T13:34:04;0.90;;;0.60;;
35606;SDS011;21729;58.392;15.656;2022-08-02T13:36:32;0.77;;;0.70;;
35606;SDS011;21729;58.392;15.656;2022-08-02T13:39:00;1.05;;;0.70;;
35606;SDS011;21729;58.392;15.656;2022-08-02T13:41:28;1.60;;;0.80;;
35606;SDS011;21729;58.392;15.656;2022-08-02T13:43:55;1.33;;;0.70;;
35606;SDS011;21729;58.392;15.656;2022-08-02T13:46:24;1.23;;;0.60;;
35606;SDS011;21729;58.392;15.656;2022-08-02T13:48:51;1.63;;;0.70;;
35606;SDS011;21729;58.392;15.656;2022-08-02T13:51:18;1.20;;;0.80;;
35606;SDS011;21729;58.392;15.656;2022-08-02T13:53:45;1.33;;;0.70;;
35606;SDS011;21729;58.392;15.656;2022-08-02T13:56:12;0.73;;;0.60;;
35606;SDS011;21729;58.392;15.656;2022-08-02T13:58:39;1.00;;;0.80;;
35606;SDS011;21729;58.392;15.656;2022-08-02T14:01:06;1.05;;;0.77;;
35606;SDS011;21729;58.392;15.656;2022-08-02T14:03:35;1.17;;;0.50;;
35606;SDS011;21729;58.392;15.656;2022-08-02T14:06:02;0.80;;;0.60;;
35606;SDS011;21729;58.392;15.656;2022-08-02T14:08:30;0.60;;;0.53;;
35606;SDS011;21729;58.392;15.656;2022-08-02T14:10:58;1.50;;;0.77;;
35606;SDS011;21729;58.392;15.656;2022-08-02T14:13:25;0.90;;;0.70;;
35606;SDS011;21729;58.392;15.656;2022-08-02T14:15:52;0.95;;;0.70;;
35606;SDS011;21729;58.392;15.656;2022-08-02T14:18:19;1.08;;;0.68;;
35606;SDS011;21729;58.392;15.656;2022-08-02T14:20:47;0.45;;;0.40;;
35606;SDS011;21729;58.392;15.656;2022-08-02T14:23:14;1.30;;;0.70;;
35606;SDS011;21729;58.392;15.656;2022-08-02T14:25:41;1.85;;;0.55;;
35606;SDS011;21729;58.392;15.656;2022-08-02T14:28:08;1.10;;;0.50;;
35606;SDS011;21729;58.392;15.656;2022-08-02T14:30:36;0.50;;;0.50;;
35606;SDS011;21729;58.392;15.656;2022-08-02T14:33:03;1.13;;;0.38;;
35606;SDS011;21729;58.392;15.656;2022-08-02T14:35:30;0.73;;;0.50;;
35606;SDS011;21729;58.392;15.656;2022-08-02T14:37:58;0.93;;;0.45;;
35606;SDS011;21729;58.392;15.656;2022-08-02T14:40:25;2.05;;;0.50;;
35606;SDS011;21729;58.392;15.656;2022-08-02T14:42:52;1.70;;;0.60;;
35606;SDS011;21729;58.392;15.656;2022-08-02T14:45:20;0.90;;;0.60;;
35606;SDS011;21729;58.392;15.656;2022-08-02T14:47:48;1.45;;;0.75;;
35606;SDS011;21729;58.392;15.656;2022-08-02T14:50:15;1.75;;;0.80;;
35606;SDS011;21729;58.392;15.656;2022-08-02T14:52:43;1.10;;;0.60;;